sensor_id;sensor_type;location;lat;lon;timestamp;temperature;humidity
44695;DHT22;32845;59.422;17.930;2024-02-21T00:00:38;0.60;99.90
44695;DHT22;32845;59.422;17.930;2024-02-21T00:05:09;0.70;99.90
44695;DHT22;32845;59.422;17.930;2024-02-21T00:09:40;0.70;99.90
44695;DHT22;32845;59.422;17.930;2024-02-21T00:14:11;0.70;99.90
44695;DHT22;32845;59.422;17.930;2024-02-21T00:18:41;0.70;99.90
44695;DHT22;32845;59.422;17.930;2024-02-21T00:23:12;0.70;99.90
44695;DHT22;32845;59.422;17.930;2024-02-21T00:27:43;0.70;99.90
44695;DHT22;32845;59.422;17.930;2024-02-21T00:32:13;0.70;99.90
44695;DHT22;32845;59.422;17.930;2024-02-21T00:36:44;0.70;99.90
44695;DHT22;32845;59.422;17.930;2024-02-21T00:41:15;0.70;99.90
44695;DHT22;32845;59.422;17.930;2024-02-21T00:45:45;0.70;99.90
44695;DHT22;32845;59.422;17.930;2024-02-21T00:50:16;0.70;99.90
44695;DHT22;32845;59.422;17.930;2024-02-21T00:54:47;0.70;99.90
44695;DHT22;32845;59.422;17.930;2024-02-21T00:59:19;0.70;99.90
44695;DHT22;32845;59.422;17.930;2024-02-21T01:03:50;0.70;99.90
44695;DHT22;32845;59.422;17.930;2024-02-21T01:08:23;0.70;99.90
44695;DHT22;32845;59.422;17.930;2024-02-21T01:12:54;0.70;99.90
44695;DHT22;32845;59.422;17.930;2024-02-21T01:17:24;0.70;99.90
44695;DHT22;32845;59.422;17.930;2024-02-21T01:21:55;0.70;99.90
44695;DHT22;32845;59.422;17.930;2024-02-21T01:26:25;0.70;99.90
44695;DHT22;32845;59.422;17.930;2024-02-21T01:30:57;0.70;99.90
44695;DHT22;32845;59.422;17.930;2024-02-21T01:35:27;0.80;99.90
44695;DHT22;32845;59.422;17.930;2024-02-21T01:39:58;0.80;99.90
44695;DHT22;32845;59.422;17.930;2024-02-21T01:44:29;0.80;99.90
44695;DHT22;32845;59.422;17.930;2024-02-21T01:48:59;0.80;99.90
44695;DHT22;32845;59.422;17.930;2024-02-21T01:53:34;0.80;99.90
44695;DHT22;32845;59.422;17.930;2024-02-21T01:58:05;0.80;99.90
44695;DHT22;32845;59.422;17.930;2024-02-21T02:02:37;0.80;99.90
44695;DHT22;32845;59.422;17.930;2024-02-21T02:07:08;0.80;99.90
44695;DHT22;32845;59.422;17.930;2024-02-21T02:11:39;0.80;99.90
44695;DHT22;32845;59.422;17.930;2024-02-21T02:16:09;0.80;99.90
44695;DHT22;32845;59.422;17.930;2024-02-21T02:20:40;0.90;99.90
44695;DHT22;32845;59.422;17.930;2024-02-21T02:25:11;0.90;99.90
44695;DHT22;32845;59.422;17.930;2024-02-21T02:29:42;0.90;99.90
44695;DHT22;32845;59.422;17.930;2024-02-21T02:34:13;0.90;99.90
44695;DHT22;32845;59.422;17.930;2024-02-21T02:38:43;0.90;99.90
44695;DHT22;32845;59.422;17.930;2024-02-21T02:43:14;1.00;99.90
44695;DHT22;32845;59.422;17.930;2024-02-21T02:47:45;1.00;99.90
44695;DHT22;32845;59.422;17.930;2024-02-21T02:52:17;1.00;99.90
44695;DHT22;32845;59.422;17.930;2024-02-21T02:56:49;1.10;99.90
44695;DHT22;32845;59.422;17.930;2024-02-21T03:01:22;1.10;99.90
44695;DHT22;32845;59.422;17.930;2024-02-21T03:05:53;1.10;99.90
44695;DHT22;32845;59.422;17.930;2024-02-21T03:10:24;1.10;99.90
44695;DHT22;32845;59.422;17.930;2024-02-21T03:14:54;1.20;99.90
44695;DHT22;32845;59.422;17.930;2024-02-21T03:19:25;1.10;99.90
44695;DHT22;32845;59.422;17.930;2024-02-21T03:23:56;1.20;99.90
44695;DHT22;32845;59.422;17.930;2024-02-21T03:28:26;1.20;99.90
44695;DHT22;32845;59.422;17.930;2024-02-21T03:32:57;1.20;99.90
44695;DHT22;32845;59.422;17.930;2024-02-21T03:37:28;1.30;99.90
44695;DHT22;32845;59.422;17.930;2024-02-21T03:41:58;1.30;99.90
44695;DHT22;32845;59.422;17.930;2024-02-21T03:46:35;1.30;99.90
44695;DHT22;32845;59.422;17.930;2024-02-21T03:51:05;1.40;99.90
44695;DHT22;32845;59.422;17.930;2024-02-21T03:55:36;1.40;99.90
44695;DHT22;32845;59.422;17.930;2024-02-21T04:00:07;1.40;99.90
44695;DHT22;32845;59.422;17.930;2024-02-21T04:04:44;1.40;99.90
44695;DHT22;32845;59.422;17.930;2024-02-21T04:09:17;1.40;99.90
44695;DHT22;32845;59.422;17.930;2024-02-21T04:13:48;1.50;99.90
44695;DHT22;32845;59.422;17.930;2024-02-21T04:18:20;1.50;99.90
44695;DHT22;32845;59.422;17.930;2024-02-21T04:22:51;1.50;99.90
44695;DHT22;32845;59.422;17.930;2024-02-21T04:27:21;1.50;99.90
44695;DHT22;32845;59.422;17.930;2024-02-21T04:31:52;1.60;99.90
44695;DHT22;32845;59.422;17.930;2024-02-21T04:36:22;1.60;99.90
44695;DHT22;32845;59.422;17.930;2024-02-21T04:40:55;1.70;99.90
44695;DHT22;32845;59.422;17.930;2024-02-21T04:45:28;1.70;99.90
44695;DHT22;32845;59.422;17.930;2024-02-21T04:49:59;1.70;99.90
44695;DHT22;32845;59.422;17.930;2024-02-21T04:54:29;1.70;99.90
44695;DHT22;32845;59.422;17.930;2024-02-21T04:59:00;1.80;99.90
44695;DHT22;32845;59.422;17.930;2024-02-21T05:03:31;1.80;99.90
44695;DHT22;32845;59.422;17.930;2024-02-21T05:08:01;1.80;99.90
44695;DHT22;32845;59.422;17.930;2024-02-21T05:12:32;1.90;99.90
44695;DHT22;32845;59.422;17.930;2024-02-21T05:17:04;1.90;99.90
44695;DHT22;32845;59.422;17.930;2024-02-21T05:21:34;1.90;99.90
44695;DHT22;32845;59.422;17.930;2024-02-21T05:26:05;2.00;99.90
44695;DHT22;32845;59.422;17.930;2024-02-21T05:30:36;2.00;99.90
44695;DHT22;32845;59.422;17.930;2024-02-21T05:35:07;2.00;99.90
44695;DHT22;32845;59.422;17.930;2024-02-21T05:39:38;2.10;99.90
44695;DHT22;32845;59.422;17.930;2024-02-21T05:44:08;2.10;99.90
44695;DHT22;32845;59.422;17.930;2024-02-21T05:48:39;2.10;99.90
44695;DHT22;32845;59.422;17.930;2024-02-21T05:53:10;2.10;99.90
44695;DHT22;32845;59.422;17.930;2024-02-21T05:57:41;2.20;99.90
44695;DHT22;32845;59.422;17.930;2024-02-21T06:02:12;2.20;99.90
44695;DHT22;32845;59.422;17.930;2024-02-21T06:06:43;2.20;99.90
44695;DHT22;32845;59.422;17.930;2024-02-21T06:11:13;2.30;99.90
44695;DHT22;32845;59.422;17.930;2024-02-21T06:15:45;2.30;99.90
44695;DHT22;32845;59.422;17.930;2024-02-21T06:20:16;2.30;99.90
44695;DHT22;32845;59.422;17.930;2024-02-21T06:24:47;2.30;99.90
44695;DHT22;32845;59.422;17.930;2024-02-21T06:29:17;2.40;99.90
44695;DHT22;32845;59.422;17.930;2024-02-21T06:33:48;2.40;99.90
44695;DHT22;32845;59.422;17.930;2024-02-21T06:38:19;2.40;99.90
44695;DHT22;32845;59.422;17.930;2024-02-21T06:42:50;2.40;99.90
44695;DHT22;32845;59.422;17.930;2024-02-21T06:47:21;2.40;99.90
44695;DHT22;32845;59.422;17.930;2024-02-21T06:51:51;2.50;99.90
44695;DHT22;32845;59.422;17.930;2024-02-21T06:56:25;2.50;99.90
44695;DHT22;32845;59.422;17.930;2024-02-21T07:01:01;2.50;99.90
44695;DHT22;32845;59.422;17.930;2024-02-21T07:05:32;2.50;99.90
44695;DHT22;32845;59.422;17.930;2024-02-21T07:10:03;2.60;99.90
44695;DHT22;32845;59.422;17.930;2024-02-21T07:14:36;2.60;99.90
44695;DHT22;32845;59.422;17.930;2024-02-21T07:19:07;2.60;99.90
44695;DHT22;32845;59.422;17.930;2024-02-21T07:23:41;2.60;99.90
44695;DHT22;32845;59.422;17.930;2024-02-21T07:28:12;2.70;99.90
44695;DHT22;32845;59.422;17.930;2024-02-21T07:32:44;2.70;99.90
44695;DHT22;32845;59.422;17.930;2024-02-21T07:37:14;2.70;99.90
44695;DHT22;32845;59.422;17.930;2024-02-21T07:41:45;2.70;99.90
44695;DHT22;32845;59.422;17.930;2024-02-21T07:46:17;2.80;99.90
44695;DHT22;32845;59.422;17.930;2024-02-21T07:50:49;2.90;99.90
44695;DHT22;32845;59.422;17.930;2024-02-21T07:55:19;2.90;99.90
44695;DHT22;32845;59.422;17.930;2024-02-21T07:59:50;2.90;99.90
44695;DHT22;32845;59.422;17.930;2024-02-21T08:04:21;2.90;99.90
44695;DHT22;32845;59.422;17.930;2024-02-21T08:08:51;3.00;99.90
44695;DHT22;32845;59.422;17.930;2024-02-21T08:13:22;3.00;99.90
44695;DHT22;32845;59.422;17.930;2024-02-21T08:17:52;3.00;99.90
44695;DHT22;32845;59.422;17.930;2024-02-21T08:22:23;3.00;99.90
44695;DHT22;32845;59.422;17.930;2024-02-21T08:26:54;3.10;99.90
44695;DHT22;32845;59.422;17.930;2024-02-21T08:31:24;3.10;99.90
44695;DHT22;32845;59.422;17.930;2024-02-21T08:36:01;3.20;99.90
44695;DHT22;32845;59.422;17.930;2024-02-21T08:40:31;3.20;99.90
44695;DHT22;32845;59.422;17.930;2024-02-21T08:45:05;3.30;99.90
44695;DHT22;32845;59.422;17.930;2024-02-21T08:49:36;3.30;99.90
44695;DHT22;32845;59.422;17.930;2024-02-21T08:54:07;3.30;99.90
44695;DHT22;32845;59.422;17.930;2024-02-21T08:58:39;3.40;99.90
44695;DHT22;32845;59.422;17.930;2024-02-21T09:03:10;3.40;99.90
44695;DHT22;32845;59.422;17.930;2024-02-21T09:07:41;3.50;99.90
44695;DHT22;32845;59.422;17.930;2024-02-21T09:12:11;3.60;99.90
44695;DHT22;32845;59.422;17.930;2024-02-21T09:16:42;3.70;99.90
44695;DHT22;32845;59.422;17.930;2024-02-21T09:21:13;3.70;99.90
44695;DHT22;32845;59.422;17.930;2024-02-21T09:25:43;3.80;99.90
44695;DHT22;32845;59.422;17.930;2024-02-21T09:30:14;3.90;99.90
44695;DHT22;32845;59.422;17.930;2024-02-21T09:34:45;3.90;99.90
44695;DHT22;32845;59.422;17.930;2024-02-21T09:39:15;4.00;99.90
44695;DHT22;32845;59.422;17.930;2024-02-21T09:43:50;4.00;99.90
44695;DHT22;32845;59.422;17.930;2024-02-21T09:48:58;4.00;99.90
44695;DHT22;32845;59.422;17.930;2024-02-21T09:53:32;4.00;99.90
44695;DHT22;32845;59.422;17.930;2024-02-21T09:58:03;4.00;99.90
44695;DHT22;32845;59.422;17.930;2024-02-21T10:02:35;4.10;99.90
44695;DHT22;32845;59.422;17.930;2024-02-21T10:07:05;4.10;99.90
44695;DHT22;32845;59.422;17.930;2024-02-21T10:11:36;4.10;99.90
44695;DHT22;32845;59.422;17.930;2024-02-21T10:16:07;4.20;99.90
44695;DHT22;32845;59.422;17.930;2024-02-21T10:20:38;4.30;99.90
44695;DHT22;32845;59.422;17.930;2024-02-21T10:25:11;4.30;99.90
44695;DHT22;32845;59.422;17.930;2024-02-21T10:29:42;4.30;99.90
44695;DHT22;32845;59.422;17.930;2024-02-21T10:34:16;4.30;99.90
44695;DHT22;32845;59.422;17.930;2024-02-21T10:38:48;4.40;99.90
44695;DHT22;32845;59.422;17.930;2024-02-21T10:43:19;4.40;99.90
44695;DHT22;32845;59.422;17.930;2024-02-21T10:47:55;4.40;99.90
44695;DHT22;32845;59.422;17.930;2024-02-21T10:52:54;4.40;99.90
44695;DHT22;32845;59.422;17.930;2024-02-21T10:57:27;4.40;99.90
44695;DHT22;32845;59.422;17.930;2024-02-21T11:01:58;4.40;99.90
44695;DHT22;32845;59.422;17.930;2024-02-21T11:06:28;4.50;99.90
44695;DHT22;32845;59.422;17.930;2024-02-21T11:10:59;4.50;99.90
44695;DHT22;32845;59.422;17.930;2024-02-21T11:15:30;4.50;99.90
44695;DHT22;32845;59.422;17.930;2024-02-21T11:20:14;4.50;99.90
44695;DHT22;32845;59.422;17.930;2024-02-21T11:24:45;4.50;99.90
44695;DHT22;32845;59.422;17.930;2024-02-21T11:29:23;4.50;99.90
44695;DHT22;32845;59.422;17.930;2024-02-21T11:33:55;4.50;99.90
44695;DHT22;32845;59.422;17.930;2024-02-21T11:38:27;4.50;99.90
44695;DHT22;32845;59.422;17.930;2024-02-21T11:42:59;4.60;99.90
44695;DHT22;32845;59.422;17.930;2024-02-21T11:47:29;4.50;99.90
44695;DHT22;32845;59.422;17.930;2024-02-21T11:52:01;4.60;99.90
44695;DHT22;32845;59.422;17.930;2024-02-21T11:56:35;4.60;99.90
44695;DHT22;32845;59.422;17.930;2024-02-21T12:01:05;4.70;99.90
44695;DHT22;32845;59.422;17.930;2024-02-21T12:05:37;4.70;99.90
44695;DHT22;32845;59.422;17.930;2024-02-21T12:10:09;4.70;99.90
44695;DHT22;32845;59.422;17.930;2024-02-21T12:14:40;4.70;99.90
44695;DHT22;32845;59.422;17.930;2024-02-21T12:19:11;4.60;99.90
44695;DHT22;32845;59.422;17.930;2024-02-21T12:23:43;4.60;99.90
44695;DHT22;32845;59.422;17.930;2024-02-21T12:28:14;4.60;99.90
44695;DHT22;32845;59.422;17.930;2024-02-21T12:32:45;4.60;99.90
44695;DHT22;32845;59.422;17.930;2024-02-21T12:37:15;4.60;99.90
44695;DHT22;32845;59.422;17.930;2024-02-21T12:41:46;4.70;99.90
44695;DHT22;32845;59.422;17.930;2024-02-21T12:46:17;4.70;99.90
44695;DHT22;32845;59.422;17.930;2024-02-21T12:50:51;4.70;99.90
44695;DHT22;32845;59.422;17.930;2024-02-21T12:55:22;4.70;99.90
44695;DHT22;32845;59.422;17.930;2024-02-21T12:59:52;4.70;99.90
44695;DHT22;32845;59.422;17.930;2024-02-21T13:04:24;4.70;99.90
44695;DHT22;32845;59.422;17.930;2024-02-21T13:08:55;4.70;99.90
44695;DHT22;32845;59.422;17.930;2024-02-21T13:13:25;4.70;99.90
44695;DHT22;32845;59.422;17.930;2024-02-21T13:17:56;4.70;99.90
44695;DHT22;32845;59.422;17.930;2024-02-21T13:22:28;4.80;99.90
44695;DHT22;32845;59.422;17.930;2024-02-21T13:26:58;4.80;99.90
44695;DHT22;32845;59.422;17.930;2024-02-21T13:31:29;4.80;99.90
44695;DHT22;32845;59.422;17.930;2024-02-21T13:36:00;4.80;99.90
44695;DHT22;32845;59.422;17.930;2024-02-21T13:40:32;4.80;99.90
44695;DHT22;32845;59.422;17.930;2024-02-21T13:45:04;4.80;99.90
44695;DHT22;32845;59.422;17.930;2024-02-21T13:49:35;4.80;99.90
44695;DHT22;32845;59.422;17.930;2024-02-21T13:54:06;4.80;99.90
44695;DHT22;32845;59.422;17.930;2024-02-21T13:58:39;4.80;99.90
44695;DHT22;32845;59.422;17.930;2024-02-21T14:03:10;4.80;99.90
44695;DHT22;32845;59.422;17.930;2024-02-21T14:07:41;4.80;99.90
44695;DHT22;32845;59.422;17.930;2024-02-21T14:12:12;4.80;99.90
44695;DHT22;32845;59.422;17.930;2024-02-21T14:16:42;4.80;99.90
44695;DHT22;32845;59.422;17.930;2024-02-21T14:21:13;4.80;99.90
44695;DHT22;32845;59.422;17.930;2024-02-21T14:25:44;4.80;99.90
44695;DHT22;32845;59.422;17.930;2024-02-21T14:30:14;4.80;99.90
44695;DHT22;32845;59.422;17.930;2024-02-21T14:34:45;4.80;99.90
44695;DHT22;32845;59.422;17.930;2024-02-21T14:39:16;4.70;99.90
44695;DHT22;32845;59.422;17.930;2024-02-21T14:43:46;4.70;99.90
44695;DHT22;32845;59.422;17.930;2024-02-21T14:48:17;4.70;99.90
44695;DHT22;32845;59.422;17.930;2024-02-21T14:52:48;4.70;99.90
44695;DHT22;32845;59.422;17.930;2024-02-21T14:57:18;4.70;99.90
44695;DHT22;32845;59.422;17.930;2024-02-21T15:01:50;4.80;99.90
44695;DHT22;32845;59.422;17.930;2024-02-21T15:06:21;4.70;99.90
44695;DHT22;32845;59.422;17.930;2024-02-21T15:10:51;4.70;99.90
44695;DHT22;32845;59.422;17.930;2024-02-21T15:15:22;4.80;99.90
44695;DHT22;32845;59.422;17.930;2024-02-21T15:19:53;4.80;99.90
44695;DHT22;32845;59.422;17.930;2024-02-21T15:24:25;4.80;99.90
44695;DHT22;32845;59.422;17.930;2024-02-21T15:28:56;4.80;99.90
44695;DHT22;32845;59.422;17.930;2024-02-21T15:33:27;4.80;99.90
44695;DHT22;32845;59.422;17.930;2024-02-21T15:37:57;4.70;99.90
44695;DHT22;32845;59.422;17.930;2024-02-21T15:42:29;4.70;99.90
44695;DHT22;32845;59.422;17.930;2024-02-21T15:47:02;4.70;99.90
44695;DHT22;32845;59.422;17.930;2024-02-21T15:51:32;4.70;99.90
44695;DHT22;32845;59.422;17.930;2024-02-21T15:56:05;4.60;99.90
44695;DHT22;32845;59.422;17.930;2024-02-21T16:00:35;4.60;99.90
44695;DHT22;32845;59.422;17.930;2024-02-21T16:05:08;4.60;99.90
44695;DHT22;32845;59.422;17.930;2024-02-21T16:09:41;4.60;99.90
44695;DHT22;32845;59.422;17.930;2024-02-21T16:14:14;4.60;99.90
44695;DHT22;32845;59.422;17.930;2024-02-21T16:18:45;4.50;99.90
44695;DHT22;32845;59.422;17.930;2024-02-21T16:23:17;4.50;99.90
44695;DHT22;32845;59.422;17.930;2024-02-21T16:27:47;4.50;99.90
44695;DHT22;32845;59.422;17.930;2024-02-21T16:32:18;4.50;99.90
44695;DHT22;32845;59.422;17.930;2024-02-21T16:36:48;4.50;99.90
44695;DHT22;32845;59.422;17.930;2024-02-21T16:41:19;4.50;99.90
44695;DHT22;32845;59.422;17.930;2024-02-21T16:45:50;4.40;99.90
44695;DHT22;32845;59.422;17.930;2024-02-21T16:50:21;4.40;99.90
44695;DHT22;32845;59.422;17.930;2024-02-21T16:54:52;4.40;99.90
44695;DHT22;32845;59.422;17.930;2024-02-21T16:59:22;4.40;99.90
44695;DHT22;32845;59.422;17.930;2024-02-21T17:03:54;4.40;99.90
44695;DHT22;32845;59.422;17.930;2024-02-21T17:08:25;4.40;99.90
44695;DHT22;32845;59.422;17.930;2024-02-21T17:12:56;4.40;99.90
44695;DHT22;32845;59.422;17.930;2024-02-21T17:17:26;4.30;99.90
44695;DHT22;32845;59.422;17.930;2024-02-21T17:21:57;4.40;99.90
44695;DHT22;32845;59.422;17.930;2024-02-21T17:26:29;4.30;99.90
44695;DHT22;32845;59.422;17.930;2024-02-21T17:31:00;4.30;99.90
44695;DHT22;32845;59.422;17.930;2024-02-21T17:35:30;4.30;99.90
44695;DHT22;32845;59.422;17.930;2024-02-21T17:40:04;4.20;99.90
44695;DHT22;32845;59.422;17.930;2024-02-21T17:44:37;4.20;99.90
44695;DHT22;32845;59.422;17.930;2024-02-21T17:49:09;4.10;99.90
44695;DHT22;32845;59.422;17.930;2024-02-21T17:53:39;4.10;99.90
44695;DHT22;32845;59.422;17.930;2024-02-21T17:58:10;4.00;99.90
44695;DHT22;32845;59.422;17.930;2024-02-21T18:02:41;4.00;99.90
44695;DHT22;32845;59.422;17.930;2024-02-21T18:07:12;4.00;99.90
44695;DHT22;32845;59.422;17.930;2024-02-21T18:11:44;3.90;99.90
44695;DHT22;32845;59.422;17.930;2024-02-21T18:16:15;3.90;99.90
44695;DHT22;32845;59.422;17.930;2024-02-21T18:20:46;3.80;99.90
44695;DHT22;32845;59.422;17.930;2024-02-21T18:25:16;3.80;99.90
44695;DHT22;32845;59.422;17.930;2024-02-21T18:29:47;3.80;99.90
44695;DHT22;32845;59.422;17.930;2024-02-21T18:34:18;3.80;99.90
44695;DHT22;32845;59.422;17.930;2024-02-21T18:38:49;3.80;99.90
44695;DHT22;32845;59.422;17.930;2024-02-21T18:43:19;3.80;99.90
44695;DHT22;32845;59.422;17.930;2024-02-21T18:47:50;3.80;99.90
44695;DHT22;32845;59.422;17.930;2024-02-21T18:52:22;3.80;99.90
44695;DHT22;32845;59.422;17.930;2024-02-21T18:56:52;3.80;99.90
44695;DHT22;32845;59.422;17.930;2024-02-21T19:01:23;3.80;99.90
44695;DHT22;32845;59.422;17.930;2024-02-21T19:05:54;3.80;99.90
44695;DHT22;32845;59.422;17.930;2024-02-21T19:10:25;3.80;99.90
44695;DHT22;32845;59.422;17.930;2024-02-21T19:14:55;3.70;99.90
44695;DHT22;32845;59.422;17.930;2024-02-21T19:19:26;3.70;99.90
44695;DHT22;32845;59.422;17.930;2024-02-21T19:23:57;3.70;99.90
44695;DHT22;32845;59.422;17.930;2024-02-21T19:28:27;3.70;99.90
44695;DHT22;32845;59.422;17.930;2024-02-21T19:32:59;3.70;99.90
44695;DHT22;32845;59.422;17.930;2024-02-21T19:37:30;3.70;99.90
44695;DHT22;32845;59.422;17.930;2024-02-21T19:42:01;3.60;99.90
44695;DHT22;32845;59.422;17.930;2024-02-21T19:46:33;3.60;99.90
44695;DHT22;32845;59.422;17.930;2024-02-21T19:51:06;3.60;99.90
44695;DHT22;32845;59.422;17.930;2024-02-21T19:55:37;3.60;99.90
44695;DHT22;32845;59.422;17.930;2024-02-21T20:00:08;3.60;99.90
44695;DHT22;32845;59.422;17.930;2024-02-21T20:04:39;3.60;99.90
44695;DHT22;32845;59.422;17.930;2024-02-21T20:09:10;3.60;99.90
44695;DHT22;32845;59.422;17.930;2024-02-21T20:13:41;3.60;99.90
44695;DHT22;32845;59.422;17.930;2024-02-21T20:18:12;3.60;99.90
44695;DHT22;32845;59.422;17.930;2024-02-21T20:22:43;3.60;99.90
44695;DHT22;32845;59.422;17.930;2024-02-21T20:27:14;3.60;99.90
44695;DHT22;32845;59.422;17.930;2024-02-21T20:31:45;3.60;99.90
44695;DHT22;32845;59.422;17.930;2024-02-21T20:36:18;3.60;99.90
44695;DHT22;32845;59.422;17.930;2024-02-21T20:40:49;3.60;99.90
44695;DHT22;32845;59.422;17.930;2024-02-21T20:45:20;3.60;99.90
44695;DHT22;32845;59.422;17.930;2024-02-21T20:49:51;3.60;99.90
44695;DHT22;32845;59.422;17.930;2024-02-21T20:54:23;3.60;99.90
44695;DHT22;32845;59.422;17.930;2024-02-21T20:58:54;3.60;99.90
44695;DHT22;32845;59.422;17.930;2024-02-21T21:03:25;3.60;99.90
44695;DHT22;32845;59.422;17.930;2024-02-21T21:07:55;3.60;99.90
44695;DHT22;32845;59.422;17.930;2024-02-21T21:12:26;3.50;99.90
44695;DHT22;32845;59.422;17.930;2024-02-21T21:16:57;3.60;99.90
44695;DHT22;32845;59.422;17.930;2024-02-21T21:21:28;3.50;99.90
44695;DHT22;32845;59.422;17.930;2024-02-21T21:25:59;3.50;99.90
44695;DHT22;32845;59.422;17.930;2024-02-21T21:30:31;3.50;99.90
44695;DHT22;32845;59.422;17.930;2024-02-21T21:35:03;3.50;99.90
44695;DHT22;32845;59.422;17.930;2024-02-21T21:39:34;3.50;99.90
44695;DHT22;32845;59.422;17.930;2024-02-21T21:44:05;3.40;99.90
44695;DHT22;32845;59.422;17.930;2024-02-21T21:48:35;3.50;99.90
44695;DHT22;32845;59.422;17.930;2024-02-21T21:53:06;3.40;99.90
44695;DHT22;32845;59.422;17.930;2024-02-21T21:57:37;3.50;99.90
44695;DHT22;32845;59.422;17.930;2024-02-21T22:02:08;3.40;99.90
44695;DHT22;32845;59.422;17.930;2024-02-21T22:06:38;3.50;99.90
44695;DHT22;32845;59.422;17.930;2024-02-21T22:11:10;3.40;99.90
44695;DHT22;32845;59.422;17.930;2024-02-21T22:15:43;3.40;99.90
44695;DHT22;32845;59.422;17.930;2024-02-21T22:20:15;3.40;99.90
44695;DHT22;32845;59.422;17.930;2024-02-21T22:24:52;3.40;99.90
44695;DHT22;32845;59.422;17.930;2024-02-21T22:29:23;3.40;99.90
44695;DHT22;32845;59.422;17.930;2024-02-21T22:33:53;3.40;99.90
44695;DHT22;32845;59.422;17.930;2024-02-21T22:38:27;3.40;99.90
44695;DHT22;32845;59.422;17.930;2024-02-21T22:43:00;3.40;99.90
44695;DHT22;32845;59.422;17.930;2024-02-21T22:47:30;3.40;99.90
44695;DHT22;32845;59.422;17.930;2024-02-21T22:52:02;3.40;99.90
44695;DHT22;32845;59.422;17.930;2024-02-21T22:56:32;3.40;99.90
44695;DHT22;32845;59.422;17.930;2024-02-21T23:01:03;3.40;99.90
44695;DHT22;32845;59.422;17.930;2024-02-21T23:05:34;3.40;99.90
44695;DHT22;32845;59.422;17.930;2024-02-21T23:10:05;3.40;99.90
44695;DHT22;32845;59.422;17.930;2024-02-21T23:14:35;3.40;99.90
44695;DHT22;32845;59.422;17.930;2024-02-21T23:19:06;3.40;99.90
44695;DHT22;32845;59.422;17.930;2024-02-21T23:23:39;3.40;99.90
44695;DHT22;32845;59.422;17.930;2024-02-21T23:28:09;3.30;99.90
44695;DHT22;32845;59.422;17.930;2024-02-21T23:32:40;3.30;99.90
44695;DHT22;32845;59.422;17.930;2024-02-21T23:37:11;3.30;99.90
44695;DHT22;32845;59.422;17.930;2024-02-21T23:41:42;3.30;99.90
44695;DHT22;32845;59.422;17.930;2024-02-21T23:46:12;3.30;99.90
44695;DHT22;32845;59.422;17.930;2024-02-21T23:50:43;3.20;99.90
44695;DHT22;32845;59.422;17.930;2024-02-21T23:55:14;3.20;99.90
44695;DHT22;32845;59.422;17.930;2024-02-21T23:59:45;3.20;99.90
